Time;durP1;ratioP1;P1;durP2;ratioP2;P2;SDS_P1;SDS_P2;PMS_P1;PMS_P2;Temp;Humidity;BMP_temperature;BMP_pressure;BME280_temperature;BME280_humidity;BME280_pressure;Samples;Min_cycle;Max_cycle;Signal;HPM_P1;HPM_P2
2024/01/29 00:02:06;;;;;;;4.72;1.30;;;;;;;;;;4959021;29;20043;-86
2024/01/29 00:04:37;;;;;;;3.65;0.98;;;;;;;;;;4958446;29;20406;-86
2024/01/29 00:07:07;;;;;;;3.20;0.80;;;;;;;;;;4967287;28;20378;-87
2024/01/29 00:09:38;;;;;;;4.45;1.00;;;;;;;;;;4960815;28;20067;-85
2024/01/29 00:12:10;;;;;;;3.20;0.88;;;;;;;;;;4952270;28;20050;-86
2024/01/29 00:14:41;;;;;;;6.57;1.13;;;;;;;;;;4954997;28;20054;-87
2024/01/29 00:17:11;;;;;;;5.75;1.00;;;;;;;;;;4959853;28;20094;-86
2024/01/29 00:19:41;;;;;;;5.97;1.13;;;;;;;;;;4978852;28;20054;-88
2024/01/29 00:22:11;;;;;;;6.05;1.35;;;;;;;;;;4977568;28;20058;-87
2024/01/29 00:24:42;;;;;;;5.53;1.30;;;;;;;;;;4940419;28;20046;-87
2024/01/29 00:27:16;;;;;;;14.98;1.27;;;;;;;;;;4967858;28;20046;-87
2024/01/29 00:29:46;;;;;;;4.57;1.00;;;;;;;;;;4938885;28;20498;-87
2024/01/29 00:32:16;;;;;;;6.75;1.15;;;;;;;;;;4959930;28;20098;-87
2024/01/29 00:34:47;;;;;;;5.15;1.13;;;;;;;;;;4940268;29;20055;-86
2024/01/29 00:37:17;;;;;;;3.65;1.13;;;;;;;;;;4956414;29;20186;-86
2024/01/29 00:39:49;;;;;;;2.92;1.20;;;;;;;;;;4957359;29;20513;-86
2024/01/29 00:42:20;;;;;;;3.20;1.15;;;;;;;;;;4928087;29;20544;-85
2024/01/29 00:44:50;;;;;;;10.95;3.33;;;;;;;;;;4940149;29;20432;-86
2024/01/29 00:47:20;;;;;;;5.22;1.83;;;;;;;;;;4969581;28;20066;-86
2024/01/29 00:49:50;;;;;;;4.10;1.17;;;;;;;;;;4959872;28;20104;-87
2024/01/29 00:52:21;;;;;;;9.30;1.20;;;;;;;;;;4960280;28;20043;-89
2024/01/29 00:54:51;;;;;;;4.63;1.20;;;;;;;;;;4939918;29;20070;-86
2024/01/29 00:57:21;;;;;;;8.10;1.27;;;;;;;;;;4959493;28;20042;-89
2024/01/29 00:59:51;;;;;;;1.83;0.90;;;;;;;;;;4973735;28;20058;-87
2024/01/29 01:02:21;;;;;;;5.72;1.40;;;;;;;;;;4976732;28;20068;-88
2024/01/29 01:04:52;;;;;;;5.78;1.02;;;;;;;;;;4944185;28;20486;-88
2024/01/29 01:07:23;;;;;;;4.78;1.17;;;;;;;;;;4975603;28;20050;-85
2024/01/29 01:09:53;;;;;;;6.00;1.02;;;;;;;;;;4973463;28;20054;-87
2024/01/29 01:12:23;;;;;;;5.10;0.95;;;;;;;;;;4957757;29;20156;-87
2024/01/29 01:14:54;;;;;;;7.75;1.77;;;;;;;;;;4925124;29;20062;-86
2024/01/29 01:17:25;;;;;;;3.95;1.08;;;;;;;;;;4959765;29;20521;-86
2024/01/29 01:19:55;;;;;;;2.67;1.05;;;;;;;;;;4969204;28;20043;-88
2024/01/29 01:22:26;;;;;;;7.75;1.40;;;;;;;;;;4947843;29;20058;-87
2024/01/29 01:24:56;;;;;;;5.43;1.40;;;;;;;;;;4926371;29;20592;-85
2024/01/29 01:27:26;;;;;;;2.38;1.05;;;;;;;;;;4941778;29;20413;-86
2024/01/29 01:29:56;;;;;;;6.22;1.27;;;;;;;;;;4942049;29;20051;-85
2024/01/29 01:32:26;;;;;;;10.00;1.73;;;;;;;;;;4960313;29;20043;-85
2024/01/29 01:34:57;;;;;;;5.28;1.30;;;;;;;;;;4961632;29;20047;-86
2024/01/29 01:37:28;;;;;;;5.78;1.10;;;;;;;;;;4942887;29;20516;-85
2024/01/29 01:39:58;;;;;;;2.45;1.00;;;;;;;;;;4969211;29;20053;-82
2024/01/29 01:42:28;;;;;;;3.15;0.95;;;;;;;;;;4969679;29;20389;-83
2024/01/29 01:44:58;;;;;;;1.80;0.90;;;;;;;;;;4970111;29;20059;-84
2024/01/29 01:47:29;;;;;;;3.42;0.93;;;;;;;;;;4969570;29;20386;-83
2024/01/29 01:50:00;;;;;;;3.15;1.02;;;;;;;;;;4958003;28;20055;-85
2024/01/29 01:52:32;;;;;;;3.10;1.10;;;;;;;;;;4959621;28;20050;-85
2024/01/29 01:55:02;;;;;;;5.35;1.67;;;;;;;;;;4965491;28;20047;-86
2024/01/29 01:57:33;;;;;;;6.13;1.20;;;;;;;;;;4951212;28;20111;-88
2024/01/29 02:00:04;;;;;;;4.18;1.42;;;;;;;;;;4964661;28;20050;-87
2024/01/29 02:02:35;;;;;;;5.20;1.20;;;;;;;;;;4962097;28;20051;-86
2024/01/29 02:05:06;;;;;;;4.88;1.70;;;;;;;;;;4957564;29;20501;-85
2024/01/29 02:07:37;;;;;;;3.25;1.10;;;;;;;;;;4949497;29;20062;-87
2024/01/29 02:10:08;;;;;;;5.90;1.15;;;;;;;;;;4956591;29;20039;-85
2024/01/29 02:12:39;;;;;;;5.55;1.05;;;;;;;;;;4956944;29;20074;-86
2024/01/29 02:15:10;;;;;;;2.60;1.02;;;;;;;;;;4956660;29;20054;-86
2024/01/29 02:17:40;;;;;;;4.03;1.00;;;;;;;;;;4939059;29;20051;-85
2024/01/29 02:20:11;;;;;;;3.70;0.80;;;;;;;;;;4939652;29;20051;-86
2024/01/29 02:22:45;;;;;;;4.32;1.10;;;;;;;;;;4950185;28;20051;-87
2024/01/29 02:25:15;;;;;;;3.78;0.90;;;;;;;;;;4936552;29;20169;-87
2024/01/29 02:27:45;;;;;;;4.43;0.90;;;;;;;;;;4955797;29;20510;-87
2024/01/29 02:30:15;;;;;;;4.78;1.33;;;;;;;;;;4939319;29;20059;-86
2024/01/29 02:32:46;;;;;;;7.78;0.98;;;;;;;;;;4957485;29;20047;-86
2024/01/29 02:35:17;;;;;;;3.85;1.08;;;;;;;;;;4968637;28;20051;-88
2024/01/29 02:37:47;;;;;;;5.88;0.88;;;;;;;;;;4976751;28;20051;-88
2024/01/29 02:40:17;;;;;;;2.70;0.90;;;;;;;;;;4959148;28;20059;-87
2024/01/29 02:42:47;;;;;;;8.38;1.00;;;;;;;;;;4976637;28;20054;-86
2024/01/29 02:45:18;;;;;;;3.65;1.00;;;;;;;;;;4975850;28;20074;-86
2024/01/29 02:47:49;;;;;;;4.00;1.05;;;;;;;;;;4976559;28;20393;-88
2024/01/29 02:50:19;;;;;;;4.43;0.82;;;;;;;;;;4976739;28;20042;-86
2024/01/29 02:52:50;;;;;;;2.55;1.05;;;;;;;;;;4976774;28;20043;-86
2024/01/29 02:55:19;;;;;;;2.53;0.70;;;;;;;;;;4976146;28;20042;-86
2024/01/29 02:57:49;;;;;;;3.75;0.93;;;;;;;;;;4975630;28;20431;-87
2024/01/29 03:00:20;;;;;;;3.95;1.15;;;;;;;;;;4977676;28;20512;-86
2024/01/29 03:02:50;;;;;;;4.63;1.10;;;;;;;;;;4975953;28;20045;-88
2024/01/29 03:05:21;;;;;;;2.58;0.80;;;;;;;;;;4977161;28;20047;-85
2024/01/29 03:08:00;;;;;;;6.47;1.00;;;;;;;;;;4963440;28;20405;-84
2024/01/29 03:10:34;;;;;;;2.63;0.90;;;;;;;;;;4978711;28;20043;-86
2024/01/29 03:13:11;;;;;;;7.60;1.13;;;;;;;;;;4977611;28;20050;-90
2024/01/29 03:15:44;;;;;;;2.35;1.02;;;;;;;;;;4960989;28;20043;-91
2024/01/29 03:18:25;;;;;;;1.52;0.93;;;;;;;;;;4963130;28;20039;-83
2024/01/29 03:21:04;;;;;;;2.38;0.80;;;;;;;;;;4977320;28;20054;-88
2024/01/29 03:27:32;;;;;;;5.43;1.55;;;;;;;;;;4978435;28;20042;-85
2024/01/29 03:30:03;;;;;;;2.00;0.80;;;;;;;;;;4975888;28;20050;-86
2024/01/29 03:32:34;;;;;;;7.20;1.30;;;;;;;;;;4975944;28;20062;-86
2024/01/29 03:35:04;;;;;;;7.22;1.73;;;;;;;;;;4975897;28;20136;-85
2024/01/29 03:37:34;;;;;;;10.30;2.45;;;;;;;;;;4981389;28;20532;-86
2024/01/29 03:40:05;;;;;;;15.50;4.47;;;;;;;;;;4989698;28;20049;-85
2024/01/29 03:42:37;;;;;;;4.22;1.23;;;;;;;;;;4993877;28;20031;-83
2024/01/29 03:45:09;;;;;;;3.28;1.30;;;;;;;;;;4952440;29;20051;-83
2024/01/29 03:47:38;;;;;;;4.18;0.85;;;;;;;;;;4967404;29;20410;-84
2024/01/29 03:50:10;;;;;;;3.92;1.83;;;;;;;;;;4958262;29;20051;-84
2024/01/29 03:52:41;;;;;;;10.88;4.18;;;;;;;;;;4958661;29;20047;-86
2024/01/29 03:55:11;;;;;;;9.43;3.47;;;;;;;;;;4940180;29;20047;-85
2024/01/29 03:57:43;;;;;;;;;;;;;;;;;;4959520;29;20062;-84
2024/01/29 04:00:18;;;;;;;13.18;4.35;;;;;;;;;;4954881;29;20382;-85
2024/01/29 04:02:50;;;;;;;3.45;1.48;;;;;;;;;;4955070;29;20062;-85
2024/01/29 04:05:21;;;;;;;12.02;1.45;;;;;;;;;;4955042;29;20043;-88
2024/01/29 04:07:52;;;;;;;30.23;8.32;;;;;;;;;;4954552;29;20043;-86
2024/01/29 04:10:22;;;;;;;55.75;12.05;;;;;;;;;;4937614;29;20043;-87
2024/01/29 04:12:53;;;;;;;5.03;1.50;;;;;;;;;;4938391;29;20054;-85
2024/01/29 04:15:23;;;;;;;6.68;1.52;;;;;;;;;;4955152;29;20047;-86
2024/01/29 04:17:53;;;;;;;10.40;3.70;;;;;;;;;;4955239;29;20058;-87
2024/01/29 04:20:23;;;;;;;8.07;2.45;;;;;;;;;;4937962;29;20058;-87
2024/01/29 04:22:54;;;;;;;26.63;6.35;;;;;;;;;;4938628;29;20047;-85
2024/01/29 04:25:25;;;;;;;6.35;1.52;;;;;;;;;;4954846;29;20051;-87
2024/01/29 04:27:55;;;;;;;3.72;1.30;;;;;;;;;;4954904;29;20506;-86
2024/01/29 04:30:25;;;;;;;4.43;1.08;;;;;;;;;;4954751;29;20051;-86
2024/01/29 04:32:55;;;;;;;8.38;1.20;;;;;;;;;;4955507;29;20043;-86
2024/01/29 04:35:25;;;;;;;4.07;1.10;;;;;;;;;;4936939;29;20043;-86
2024/01/29 04:37:55;;;;;;;3.90;1.00;;;;;;;;;;4955667;29;20046;-86
2024/01/29 04:40:26;;;;;;;4.50;1.38;;;;;;;;;;4938522;29;20066;-85
2024/01/29 04:42:58;;;;;;;3.70;1.20;;;;;;;;;;4956554;28;20039;-87
2024/01/29 04:45:29;;;;;;;3.58;1.40;;;;;;;;;;4958900;29;20047;-86
2024/01/29 04:47:59;;;;;;;3.58;1.30;;;;;;;;;;4958488;29;20052;-86
2024/01/29 04:50:29;;;;;;;3.60;1.23;;;;;;;;;;4957918;29;20047;-86
2024/01/29 04:52:59;;;;;;;4.10;1.25;;;;;;;;;;4959006;29;20423;-87
2024/01/29 04:55:29;;;;;;;6.32;1.30;;;;;;;;;;4941393;29;20059;-86
2024/01/29 04:57:59;;;;;;;9.93;1.65;;;;;;;;;;4958293;29;20478;-88
2024/01/29 05:00:29;;;;;;;4.55;1.10;;;;;;;;;;4941648;29;20046;-85
2024/01/29 05:02:59;;;;;;;4.80;1.42;;;;;;;;;;4943866;29;20067;-84
2024/01/29 05:05:29;;;;;;;3.53;1.05;;;;;;;;;;4958419;29;20043;-84
2024/01/29 05:07:59;;;;;;;5.10;1.05;;;;;;;;;;4959134;29;20047;-85
2024/01/29 05:10:29;;;;;;;2.78;1.23;;;;;;;;;;4943281;29;20475;-85
2024/01/29 05:13:00;;;;;;;3.10;1.60;;;;;;;;;;4941734;29;20054;-86
2024/01/29 05:15:30;;;;;;;6.25;1.50;;;;;;;;;;4957762;29;20487;-85
2024/01/29 05:18:00;;;;;;;2.20;1.30;;;;;;;;;;4957672;29;20039;-86
2024/01/29 05:20:30;;;;;;;2.15;1.05;;;;;;;;;;4957944;29;20047;-86
2024/01/29 05:23:01;;;;;;;3.10;1.10;;;;;;;;;;4958335;29;20051;-84
2024/01/29 05:25:32;;;;;;;2.88;0.80;;;;;;;;;;4945350;28;20039;-87
2024/01/29 05:28:03;;;;;;;5.80;1.30;;;;;;;;;;4964807;28;20043;-86
2024/01/29 05:30:33;;;;;;;4.32;1.13;;;;;;;;;;4965045;28;20047;-89
2024/01/29 05:33:03;;;;;;;3.95;1.00;;;;;;;;;;4965999;28;20477;-86
2024/01/29 05:35:55;;;;;;;6.65;1.17;;;;;;;;;;4949891;28;20417;-85
2024/01/29 05:38:26;;;;;;;5.55;1.50;;;;;;;;;;4949700;28;20043;-88
2024/01/29 05:40:57;;;;;;;2.85;1.27;;;;;;;;;;4962814;28;20429;-86
2024/01/29 05:43:27;;;;;;;2.35;1.17;;;;;;;;;;4970533;28;20489;-86
2024/01/29 05:45:57;;;;;;;5.18;1.38;;;;;;;;;;4958252;28;20073;-87
2024/01/29 05:48:27;;;;;;;3.00;1.00;;;;;;;;;;4973572;28;20050;-86
2024/01/29 05:50:57;;;;;;;2.85;1.00;;;;;;;;;;4937963;29;20052;-85
2024/01/29 05:53:28;;;;;;;5.07;1.10;;;;;;;;;;4937751;29;20059;-84
2024/01/29 05:56:00;;;;;;;2.40;1.10;;;;;;;;;;4938320;29;20043;-86
2024/01/29 05:58:32;;;;;;;3.55;1.13;;;;;;;;;;4938530;29;20047;-86
2024/01/29 06:01:03;;;;;;;2.50;0.93;;;;;;;;;;4937728;29;20059;-86
2024/01/29 06:03:34;;;;;;;4.40;1.17;;;;;;;;;;4935242;29;20056;-85
2024/01/29 06:06:05;;;;;;;2.30;1.20;;;;;;;;;;4935254;29;20070;-86
2024/01/29 06:08:37;;;;;;;2.95;1.08;;;;;;;;;;4938033;29;20541;-86
2024/01/29 06:11:07;;;;;;;4.70;1.10;;;;;;;;;;4937542;29;20509;-86
2024/01/29 06:13:39;;;;;;;3.25;1.33;;;;;;;;;;4938367;29;20390;-86
2024/01/29 06:16:09;;;;;;;4.78;0.98;;;;;;;;;;4937749;29;20039;-86
2024/01/29 06:18:40;;;;;;;7.25;1.58;;;;;;;;;;4938177;29;20047;-85
2024/01/29 06:21:10;;;;;;;2.20;1.10;;;;;;;;;;4937670;29;20498;-86
2024/01/29 06:23:41;;;;;;;6.22;1.10;;;;;;;;;;4937099;29;20055;-86
2024/01/29 06:26:12;;;;;;;5.20;1.10;;;;;;;;;;4921571;29;20048;-84
2024/01/29 06:28:43;;;;;;;2.92;1.40;;;;;;;;;;4937535;29;20035;-85
2024/01/29 06:31:14;;;;;;;2.63;1.10;;;;;;;;;;4937438;29;20058;-85
2024/01/29 06:33:44;;;;;;;4.63;1.25;;;;;;;;;;4937564;29;20048;-85
2024/01/29 06:36:17;;;;;;;6.85;1.20;;;;;;;;;;4937530;29;20075;-84
2024/01/29 06:38:48;;;;;;;3.92;1.30;;;;;;;;;;4936379;29;20055;-84
2024/01/29 06:41:25;;;;;;;7.72;1.48;;;;;;;;;;4937004;29;20047;-84
2024/01/29 06:43:56;;;;;;;3.95;1.20;;;;;;;;;;4919883;29;20055;-86
2024/01/29 06:46:27;;;;;;;5.07;1.30;;;;;;;;;;4937351;29;20059;-86
2024/01/29 06:48:57;;;;;;;2.47;1.00;;;;;;;;;;4937576;29;20467;-84
2024/01/29 06:51:27;;;;;;;4.07;1.13;;;;;;;;;;4935854;29;20406;-84
2024/01/29 06:53:58;;;;;;;3.15;1.15;;;;;;;;;;4937245;29;20047;-84
2024/01/29 06:56:30;;;;;;;5.70;1.52;;;;;;;;;;4936819;29;20044;-84
2024/01/29 06:59:00;;;;;;;4.47;1.00;;;;;;;;;;4936422;29;20043;-84
2024/01/29 07:01:32;;;;;;;4.03;1.20;;;;;;;;;;4936558;29;20059;-87
2024/01/29 07:04:04;;;;;;;5.85;1.42;;;;;;;;;;4936711;29;20390;-84
2024/01/29 07:06:34;;;;;;;3.20;1.30;;;;;;;;;;4936092;29;20055;-84
2024/01/29 07:09:05;;;;;;;2.28;0.98;;;;;;;;;;4936687;29;20055;-86
2024/01/29 07:11:36;;;;;;;5.03;1.30;;;;;;;;;;4936709;29;20403;-84
2024/01/29 07:14:07;;;;;;;3.92;1.42;;;;;;;;;;4936539;29;20051;-84
2024/01/29 07:16:37;;;;;;;2.40;1.20;;;;;;;;;;4935543;29;20055;-85
2024/01/29 07:19:07;;;;;;;3.45;1.30;;;;;;;;;;4936727;29;20058;-85
2024/01/29 07:21:41;;;;;;;4.78;1.25;;;;;;;;;;4918681;29;20052;-85
2024/01/29 07:24:13;;;;;;;3.25;1.20;;;;;;;;;;4936736;29;20054;-84
2024/01/29 07:26:43;;;;;;;3.63;1.60;;;;;;;;;;4936634;29;20048;-84
2024/01/29 07:29:13;;;;;;;5.20;1.40;;;;;;;;;;4939724;29;20044;-83
2024/01/29 07:31:43;;;;;;;3.28;1.42;;;;;;;;;;4939788;29;20055;-82
2024/01/29 07:34:14;;;;;;;6.32;1.88;;;;;;;;;;4941094;29;20052;-82
2024/01/29 07:36:45;;;;;;;5.50;1.50;;;;;;;;;;4942320;29;20044;-86
2024/01/29 07:39:15;;;;;;;2.50;1.30;;;;;;;;;;4936562;29;20052;-85
2024/01/29 07:41:46;;;;;;;4.45;1.40;;;;;;;;;;4935756;29;20518;-83
2024/01/29 07:44:17;;;;;;;4.90;1.60;;;;;;;;;;4936288;29;20051;-84
2024/01/29 07:46:49;;;;;;;3.78;1.45;;;;;;;;;;4936575;29;20059;-85
2024/01/29 07:49:21;;;;;;;5.07;1.27;;;;;;;;;;4936028;29;20047;-84
2024/01/29 07:51:51;;;;;;;3.83;1.30;;;;;;;;;;4935940;29;20040;-84
2024/01/29 07:54:21;;;;;;;3.72;1.17;;;;;;;;;;4934634;29;20059;-84
2024/01/29 07:56:51;;;;;;;5.13;1.30;;;;;;;;;;4936021;29;20372;-86
2024/01/29 07:59:21;;;;;;;3.17;1.42;;;;;;;;;;4919325;29;20063;-84
2024/01/29 08:01:53;;;;;;;4.97;1.77;;;;;;;;;;4936411;29;20043;-84
2024/01/29 08:04:25;;;;;;;5.13;1.60;;;;;;;;;;4936297;29;20502;-83
2024/01/29 08:06:55;;;;;;;8.63;1.73;;;;;;;;;;4935862;29;20376;-83
2024/01/29 08:09:28;;;;;;;9.15;1.80;;;;;;;;;;4936437;29;20051;-84
2024/01/29 08:11:59;;;;;;;6.10;2.03;;;;;;;;;;4936145;29;20529;-84
2024/01/29 08:14:31;;;;;;;2.97;1.88;;;;;;;;;;4936155;29;20055;-83
2024/01/29 08:17:01;;;;;;;3.72;1.42;;;;;;;;;;4936710;29;20494;-85
2024/01/29 08:19:35;;;;;;;4.07;1.25;;;;;;;;;;4940270;29;20409;-86
2024/01/29 08:22:06;;;;;;;2.88;1.70;;;;;;;;;;4940158;29;20483;-84
2024/01/29 08:24:39;;;;;;;2.22;1.52;;;;;;;;;;4937917;29;20059;-86
2024/01/29 08:27:09;;;;;;;5.25;1.50;;;;;;;;;;4938390;29;20051;-83
2024/01/29 08:29:39;;;;;;;5.75;1.58;;;;;;;;;;4939912;29;20058;-84
2024/01/29 08:32:09;;;;;;;3.28;1.27;;;;;;;;;;4938513;29;20491;-84
2024/01/29 08:34:39;;;;;;;4.75;1.30;;;;;;;;;;4922577;29;20451;-84
2024/01/29 08:37:12;;;;;;;4.07;1.55;;;;;;;;;;4939238;29;20055;-84
2024/01/29 08:39:42;;;;;;;4.53;1.60;;;;;;;;;;4939647;29;20040;-84
2024/01/29 08:42:12;;;;;;;4.80;1.45;;;;;;;;;;4939030;29;20054;-84
2024/01/29 08:44:42;;;;;;;3.42;1.33;;;;;;;;;;4937737;29;20075;-84
2024/01/29 08:47:12;;;;;;;4.63;1.33;;;;;;;;;;4939132;29;20048;-85
2024/01/29 08:49:42;;;;;;;3.22;1.45;;;;;;;;;;4937511;29;20063;-84
2024/01/29 08:52:13;;;;;;;4.07;1.42;;;;;;;;;;4939243;29;20391;-84
2024/01/29 08:54:44;;;;;;;3.67;1.60;;;;;;;;;;4938358;29;20056;-84
2024/01/29 08:57:14;;;;;;;5.13;1.85;;;;;;;;;;4938156;29;20483;-84
2024/01/29 08:59:43;;;;;;;2.58;1.30;;;;;;;;;;4938996;29;20052;-84
2024/01/29 09:02:14;;;;;;;14.07;1.92;;;;;;;;;;4938073;29;20048;-84
2024/01/29 09:04:45;;;;;;;7.63;1.63;;;;;;;;;;4938731;29;20387;-84
2024/01/29 09:07:17;;;;;;;5.15;1.30;;;;;;;;;;4922328;29;20060;-85
2024/01/29 09:09:48;;;;;;;4.95;1.27;;;;;;;;;;4939053;29;20055;-82
2024/01/29 09:12:17;;;;;;;3.58;1.65;;;;;;;;;;4938768;29;20047;-86
2024/01/29 09:14:48;;;;;;;6.28;1.40;;;;;;;;;;4938873;29;20058;-84
2024/01/29 09:17:19;;;;;;;5.43;1.73;;;;;;;;;;4939166;29;20059;-84
2024/01/29 09:19:51;;;;;;;3.15;1.65;;;;;;;;;;4938598;29;20047;-84
2024/01/29 09:22:21;;;;;;;15.52;1.60;;;;;;;;;;4938409;29;20398;-83
2024/01/29 09:24:51;;;;;;;4.50;1.58;;;;;;;;;;4922481;29;20116;-83
2024/01/29 09:27:23;;;;;;;7.95;1.73;;;;;;;;;;4938546;29;20047;-83
2024/01/29 09:29:54;;;;;;;;;;;;;;;;;;4935944;29;20379;-83
2024/01/29 09:32:25;;;;;;;7.28;1.55;;;;;;;;;;4938794;29;19934;-84
2024/01/29 09:34:56;;;;;;;3.75;1.20;;;;;;;;;;4921714;29;20494;-83
2024/01/29 09:37:27;;;;;;;5.70;1.80;;;;;;;;;;4938638;29;20047;-82
2024/01/29 09:39:57;;;;;;;3.22;1.60;;;;;;;;;;4938670;29;20383;-83
2024/01/29 09:42:30;;;;;;;4.13;1.63;;;;;;;;;;4938207;29;20048;-83
2024/01/29 09:45:04;;;;;;;6.90;1.35;;;;;;;;;;4937637;29;20052;-83
2024/01/29 09:47:37;;;;;;;2.78;1.40;;;;;;;;;;4938144;29;20050;-84
2024/01/29 09:50:09;;;;;;;3.83;1.00;;;;;;;;;;4920225;29;20063;-83
2024/01/29 09:52:40;;;;;;;3.28;1.23;;;;;;;;;;4936862;29;20394;-84
2024/01/29 09:55:13;;;;;;;8.27;1.20;;;;;;;;;;4937883;29;20058;-84
2024/01/29 09:57:45;;;;;;;3.05;0.95;;;;;;;;;;4937769;29;20039;-85
2024/01/29 10:00:16;;;;;;;8.23;1.10;;;;;;;;;;4938250;29;20051;-83
2024/01/29 10:02:50;;;;;;;6.07;1.38;;;;;;;;;;4955109;29;20062;-84
2024/01/29 10:05:22;;;;;;;9.43;1.10;;;;;;;;;;4939408;29;20055;-83
2024/01/29 10:07:55;;;;;;;5.07;1.30;;;;;;;;;;4938808;29;20055;-84
2024/01/29 10:10:26;;;;;;;3.25;1.00;;;;;;;;;;4956412;29;20043;-84
2024/01/29 10:13:09;;;;;;;7.13;1.50;;;;;;;;;;4956234;29;20052;-85
2024/01/29 10:15:43;;;;;;;4.70;1.38;;;;;;;;;;4922644;29;20059;-86
2024/01/29 10:18:15;;;;;;;4.75;1.65;;;;;;;;;;4937191;29;20051;-86
2024/01/29 10:20:46;;;;;;;6.55;1.90;;;;;;;;;;4938347;29;20047;-84
2024/01/29 10:23:16;;;;;;;10.02;2.22;;;;;;;;;;4937905;29;20512;-83
2024/01/29 10:25:55;;;;;;;3.97;1.48;;;;;;;;;;4936833;29;20044;-86
2024/01/29 10:28:29;;;;;;;8.68;1.80;;;;;;;;;;4937383;29;20043;-83
2024/01/29 10:30:59;;;;;;;4.88;1.67;;;;;;;;;;4937389;29;20075;-84
2024/01/29 10:33:29;;;;;;;4.32;1.60;;;;;;;;;;4920809;29;20047;-83
2024/01/29 10:36:02;;;;;;;4.63;1.63;;;;;;;;;;4950485;29;20059;-86
2024/01/29 10:38:35;;;;;;;5.93;1.75;;;;;;;;;;4955697;29;20039;-84
2024/01/29 10:41:11;;;;;;;8.35;1.75;;;;;;;;;;4954482;28;20058;-83
2024/01/29 10:43:45;;;;;;;5.60;1.83;;;;;;;;;;4955688;29;20063;-83
2024/01/29 10:46:21;;;;;;;6.00;1.73;;;;;;;;;;4955963;29;20051;-83
2024/01/29 10:48:54;;;;;;;8.88;2.25;;;;;;;;;;4955512;29;20043;-85
2024/01/29 10:51:26;;;;;;;3.22;1.83;;;;;;;;;;4955154;29;20051;-83
2024/01/29 10:53:59;;;;;;;6.20;1.83;;;;;;;;;;4956061;29;20058;-83
2024/01/29 10:56:32;;;;;;;12.68;3.53;;;;;;;;;;4955473;29;20054;-82
2024/01/29 10:59:02;;;;;;;;;;;;;;;;;;4955227;29;20040;-84
2024/01/29 11:01:33;;;;;;;;;;;;;;;;;;4938099;29;19929;-85
2024/01/29 11:04:11;;;;;;;6.18;1.30;;;;;;;;;;4954662;29;19949;-84
2024/01/29 11:07:01;;;;;;;11.15;3.03;;;;;;;;;;4953404;29;20124;-84
2024/01/29 11:09:32;;;;;;;9.85;2.50;;;;;;;;;;4951801;29;20055;-82
2024/01/29 11:12:05;;;;;;;5.03;2.38;;;;;;;;;;4947393;29;20505;-84
2024/01/29 11:14:36;;;;;;;5.68;1.98;;;;;;;;;;4953163;29;20035;-88
2024/01/29 11:17:07;;;;;;;8.15;2.35;;;;;;;;;;4952683;29;20040;-84
2024/01/29 11:19:38;;;;;;;5.95;2.20;;;;;;;;;;4954215;29;20039;-87
2024/01/29 11:22:10;;;;;;;6.53;1.73;;;;;;;;;;4937683;29;20051;-88
2024/01/29 11:24:43;;;;;;;16.75;2.67;;;;;;;;;;4954178;29;20046;-85
2024/01/29 11:27:15;;;;;;;14.05;2.65;;;;;;;;;;4954406;29;20047;-85
2024/01/29 11:29:45;;;;;;;14.65;2.70;;;;;;;;;;4954232;29;20043;-82
2024/01/29 11:32:16;;;;;;;11.73;2.65;;;;;;;;;;4954491;29;20051;-83
2024/01/29 11:34:47;;;;;;;11.45;2.50;;;;;;;;;;4954477;29;20047;-83
2024/01/29 11:37:30;;;;;;;9.77;3.85;;;;;;;;;;4952994;29;20077;-83
2024/01/29 11:40:25;;;;;;;13.90;2.53;;;;;;;;;;4952603;29;20062;-82
2024/01/29 11:43:11;;;;;;;8.82;2.03;;;;;;;;;;4921093;29;20502;-85
2024/01/29 11:45:54;;;;;;;6.55;1.70;;;;;;;;;;4935760;29;20058;-84
2024/01/29 11:48:25;;;;;;;7.03;1.67;;;;;;;;;;4954130;29;20047;-82
2024/01/29 11:50:57;;;;;;;5.88;1.35;;;;;;;;;;4954155;29;20059;-84
2024/01/29 11:53:27;;;;;;;4.32;1.33;;;;;;;;;;4954247;29;20410;-83
2024/01/29 11:56:02;;;;;;;3.42;1.48;;;;;;;;;;4935305;29;20055;-84
2024/01/29 11:58:40;;;;;;;5.20;2.20;;;;;;;;;;4954201;29;20051;-84
2024/01/29 12:01:14;;;;;;;4.18;1.52;;;;;;;;;;4954171;29;20039;-81
2024/01/29 12:03:48;;;;;;;5.05;1.63;;;;;;;;;;4936894;29;20047;-81
2024/01/29 12:06:19;;;;;;;4.88;1.73;;;;;;;;;;4953288;29;20036;-81
2024/01/29 12:08:50;;;;;;;5.68;1.58;;;;;;;;;;4953853;29;20062;-82
2024/01/29 12:11:21;;;;;;;5.50;1.45;;;;;;;;;;4920017;29;20058;-84
2024/01/29 12:13:57;;;;;;;5.75;1.52;;;;;;;;;;4954283;29;20406;-83
2024/01/29 12:16:29;;;;;;;5.90;1.48;;;;;;;;;;4952723;29;20047;-82
2024/01/29 12:21:52;;;;;;;6.13;1.55;;;;;;;;;;4944941;29;20043;-86
2024/01/29 12:24:22;;;;;;;4.82;2.03;;;;;;;;;;4953983;29;20054;-85
2024/01/29 12:26:53;;;;;;;6.38;2.10;;;;;;;;;;4953944;29;20055;-86
2024/01/29 12:29:25;;;;;;;38.20;17.60;;;;;;;;;;4952676;29;20043;-86
2024/01/29 12:31:55;;;;;;;6.75;2.60;;;;;;;;;;4937352;29;20051;-88
2024/01/29 12:34:25;;;;;;;8.32;2.72;;;;;;;;;;4955009;29;20058;-86
2024/01/29 12:37:22;;;;;;;7.10;3.10;;;;;;;;;;4956172;29;20413;-85
2024/01/29 12:39:54;;;;;;;11.10;6.25;;;;;;;;;;4940041;29;20422;-84
2024/01/29 12:42:28;;;;;;;10.05;6.43;;;;;;;;;;4955574;29;20047;-86
2024/01/29 12:45:17;;;;;;;8.48;4.65;;;;;;;;;;4943718;29;20062;-86
2024/01/29 12:47:49;;;;;;;3.38;1.58;;;;;;;;;;4918301;29;20047;-87
2024/01/29 12:50:20;;;;;;;4.63;1.65;;;;;;;;;;4952528;29;20054;-85
2024/01/29 12:52:55;;;;;;;6.43;1.70;;;;;;;;;;4958624;29;20059;-90
2024/01/29 12:55:42;;;;;;;7.28;1.98;;;;;;;;;;4948487;29;20047;-84
2024/01/29 12:58:15;;;;;;;4.50;2.67;;;;;;;;;;4939611;29;20413;-81
2024/01/29 13:00:46;;;;;;;8.20;1.92;;;;;;;;;;4955333;29;20047;-83
2024/01/29 13:03:29;;;;;;;7.22;3.53;;;;;;;;;;4941717;29;20045;-83
2024/01/29 13:06:02;;;;;;;5.53;1.77;;;;;;;;;;4960239;29;20371;-82
2024/01/29 13:08:35;;;;;;;12.75;3.80;;;;;;;;;;4942873;29;20058;-83
2024/01/29 13:11:07;;;;;;;29.92;14.27;;;;;;;;;;4939748;29;20051;-83
2024/01/29 13:13:37;;;;;;;10.15;5.15;;;;;;;;;;4939061;29;20063;-84
2024/01/29 13:16:09;;;;;;;5.95;1.65;;;;;;;;;;4940067;29;20047;-87
2024/01/29 13:18:40;;;;;;;17.08;13.52;;;;;;;;;;4939827;29;20088;-85
2024/01/29 13:21:11;;;;;;;4.78;2.45;;;;;;;;;;4958092;29;20039;-85
2024/01/29 13:23:41;;;;;;;9.60;3.50;;;;;;;;;;4957148;29;20548;-88
2024/01/29 13:26:11;;;;;;;4.03;1.85;;;;;;;;;;4966475;29;20039;-86
2024/01/29 13:28:44;;;;;;;2.92;1.33;;;;;;;;;;4973464;29;20433;-84
2024/01/29 13:31:15;;;;;;;2.60;1.30;;;;;;;;;;4941358;29;20061;-84
2024/01/29 13:33:47;;;;;;;3.40;1.30;;;;;;;;;;4975386;29;20047;-84
2024/01/29 13:36:18;;;;;;;2.92;1.27;;;;;;;;;;4965129;29;20497;-86
2024/01/29 13:38:49;;;;;;;4.00;1.35;;;;;;;;;;4957719;29;20062;-84
2024/01/29 13:41:22;;;;;;;3.25;1.20;;;;;;;;;;4942293;29;20043;-83
2024/01/29 13:43:53;;;;;;;3.97;1.50;;;;;;;;;;4957149;29;20058;-83
2024/01/29 13:46:23;;;;;;;4.75;1.60;;;;;;;;;;4940667;29;20494;-84
2024/01/29 13:48:53;;;;;;;3.17;1.33;;;;;;;;;;4939292;29;20047;-85
2024/01/29 13:51:23;;;;;;;2.20;0.88;;;;;;;;;;4956044;29;20427;-85
2024/01/29 13:53:54;;;;;;;2.65;1.13;;;;;;;;;;4955649;29;20050;-87
2024/01/29 13:56:25;;;;;;;7.22;1.38;;;;;;;;;;4955295;29;20047;-83
2024/01/29 13:59:00;;;;;;;7.25;1.30;;;;;;;;;;4956928;29;20039;-84
2024/01/29 14:01:32;;;;;;;3.35;1.23;;;;;;;;;;4957421;29;20054;-87
2024/01/29 14:04:03;;;;;;;2.78;0.95;;;;;;;;;;4955338;29;20051;-85
2024/01/29 14:06:34;;;;;;;3.13;1.15;;;;;;;;;;4944610;29;20510;-82
2024/01/29 14:09:05;;;;;;;5.65;1.70;;;;;;;;;;4955274;29;20054;-85
2024/01/29 14:11:36;;;;;;;3.38;1.45;;;;;;;;;;4937156;29;20067;-86
2024/01/29 14:14:06;;;;;;;5.38;1.23;;;;;;;;;;4956033;28;20043;-82
2024/01/29 14:16:40;;;;;;;4.97;1.27;;;;;;;;;;4954777;29;20044;-84
2024/01/29 14:19:15;;;;;;;3.97;1.42;;;;;;;;;;4954622;29;20051;-84
2024/01/29 14:21:45;;;;;;;4.68;1.42;;;;;;;;;;4954244;29;20047;-86
2024/01/29 14:24:15;;;;;;;3.05;1.13;;;;;;;;;;4938879;29;20437;-84
2024/01/29 14:26:45;;;;;;;3.22;0.95;;;;;;;;;;4953778;29;20726;-85
2024/01/29 14:29:20;;;;;;;3.25;1.30;;;;;;;;;;4956562;29;20531;-84
2024/01/29 14:31:55;;;;;;;3.35;1.13;;;;;;;;;;4954710;29;20043;-86
2024/01/29 14:34:26;;;;;;;4.70;1.05;;;;;;;;;;4954487;29;20082;-87
2024/01/29 14:36:56;;;;;;;3.00;1.08;;;;;;;;;;4954896;29;20043;-83
2024/01/29 14:39:26;;;;;;;7.40;1.20;;;;;;;;;;4955050;29;20050;-85
2024/01/29 14:41:57;;;;;;;5.40;1.00;;;;;;;;;;4954770;29;20050;-88
2024/01/29 14:44:30;;;;;;;3.15;0.57;;;;;;;;;;4954786;29;20398;-85
2024/01/29 14:47:03;;;;;;;2.67;0.93;;;;;;;;;;4953235;29;20055;-87
2024/01/29 14:49:35;;;;;;;3.20;0.60;;;;;;;;;;4954933;29;20047;-86
2024/01/29 14:52:05;;;;;;;1.27;0.52;;;;;;;;;;4954616;29;20055;-85
2024/01/29 14:54:36;;;;;;;4.07;0.50;;;;;;;;;;4954228;29;20054;-85
2024/01/29 14:57:07;;;;;;;1.92;0.40;;;;;;;;;;4954031;29;20058;-85
2024/01/29 14:59:37;;;;;;;;;;;;;;;;;;4954719;29;20502;-86
2024/01/29 15:02:08;;;;;;;1.92;0.60;;;;;;;;;;4954377;29;19929;-85
2024/01/29 15:04:38;;;;;;;5.20;0.60;;;;;;;;;;4937678;29;20058;-89
2024/01/29 15:07:08;;;;;;;2.25;0.45;;;;;;;;;;4954857;29;20409;-87
2024/01/29 15:09:39;;;;;;;1.48;0.43;;;;;;;;;;4953762;29;20043;-85
2024/01/29 15:12:11;;;;;;;2.97;0.47;;;;;;;;;;4937808;29;20062;-85
2024/01/29 15:14:41;;;;;;;4.70;0.80;;;;;;;;;;4953956;29;20133;-87
2024/01/29 15:17:13;;;;;;;2.58;0.50;;;;;;;;;;4937269;29;20047;-85